createdAt,value
2022-10-21T00:01:06.174Z,20.10
2022-10-21T00:03:34.409Z,20.10
2022-10-21T00:06:03.091Z,20.00
2022-10-21T00:08:31.434Z,20.00
2022-10-21T00:11:02.038Z,20.00
2022-10-21T00:13:34.053Z,20.00
2022-10-21T00:16:05.057Z,20.00
2022-10-21T00:18:33.690Z,20.00
2022-10-21T00:21:01.970Z,20.00
2022-10-21T00:23:30.307Z,20.00
2022-10-21T00:25:59.012Z,20.00
2022-10-21T00:28:27.823Z,20.00
2022-10-21T00:31:16.122Z,20.00
2022-10-21T00:33:44.795Z,20.00
2022-10-21T00:36:14.352Z,20.00
2022-10-21T00:38:47.664Z,20.00
2022-10-21T00:41:17.672Z,20.00
2022-10-21T00:44:07.518Z,20.00
2022-10-21T00:46:47.927Z,20.00
2022-10-21T00:49:21.960Z,20.00
2022-10-21T00:51:53.472Z,20.00
2022-10-21T00:54:22.781Z,20.00
2022-10-21T00:59:21.273Z,20.00
2022-10-21T01:01:49.852Z,20.00
2022-10-21T01:04:18.341Z,20.00
2022-10-21T01:06:47.455Z,20.00
2022-10-21T01:09:17.709Z,20.00
2022-10-21T01:11:46.855Z,20.00
2022-10-21T01:14:35.513Z,20.00
2022-10-21T01:17:26.525Z,19.90
2022-10-21T01:19:58.773Z,19.90
2022-10-21T01:22:37.419Z,19.90
2022-10-21T01:25:18.284Z,19.90
2022-10-21T01:28:01.514Z,19.90
2022-10-21T01:30:35.920Z,19.90
2022-10-21T01:33:27.036Z,19.90
2022-10-21T01:36:21.317Z,19.80
2022-10-21T01:38:54.456Z,19.80
2022-10-21T01:41:35.278Z,19.80
2022-10-21T01:44:09.311Z,19.80
2022-10-21T01:46:46.277Z,19.80
2022-10-21T01:49:29.357Z,19.80
2022-10-21T01:51:58.633Z,19.70
2022-10-21T01:54:48.372Z,19.70
2022-10-21T01:57:18.736Z,19.70
2022-10-21T01:59:48.983Z,19.70
2022-10-21T02:02:18.169Z,19.70
2022-10-21T02:04:48.188Z,19.70
2022-10-21T02:07:15.619Z,19.70
2022-10-21T02:09:44.271Z,19.70
2022-10-21T02:12:12.379Z,19.70
2022-10-21T02:14:46.853Z,19.70
2022-10-21T02:17:20.578Z,19.70
2022-10-21T02:19:49.539Z,19.70
2022-10-21T02:22:20.813Z,19.60
2022-10-21T02:25:02.004Z,19.60
2022-10-21T02:27:30.101Z,19.60
2022-10-21T02:30:00.195Z,19.60
2022-10-21T02:32:48.452Z,19.60
2022-10-21T02:35:39.835Z,19.60
2022-10-21T02:38:26.059Z,19.60
2022-10-21T02:41:00.588Z,19.60
2022-10-21T02:43:33.151Z,19.60
2022-10-21T02:46:04.182Z,19.50
2022-10-21T02:48:34.519Z,19.50
2022-10-21T02:51:05.756Z,19.50
2022-10-21T02:53:34.747Z,19.50
2022-10-21T02:56:03.099Z,19.50
2022-10-21T02:58:41.692Z,19.50
2022-10-21T03:01:09.376Z,19.50
2022-10-21T03:03:37.074Z,19.50
2022-10-21T03:06:04.827Z,19.50
2022-10-21T03:08:34.473Z,19.50
2022-10-21T03:11:02.072Z,19.50
2022-10-21T03:13:30.141Z,19.50
2022-10-21T03:16:00.880Z,19.50
2022-10-21T03:18:28.765Z,19.50
2022-10-21T03:20:56.583Z,19.50
2022-10-21T03:23:24.204Z,19.50
2022-10-21T03:25:51.760Z,19.50
2022-10-21T03:28:21.063Z,19.50
2022-10-21T03:30:49.311Z,19.50
2022-10-21T03:33:21.671Z,19.40
2022-10-21T03:35:49.380Z,19.50
2022-10-21T03:38:17.546Z,19.40
2022-10-21T03:40:45.207Z,19.40
2022-10-21T03:43:12.997Z,19.40
2022-10-21T03:45:40.637Z,19.40
2022-10-21T03:48:08.638Z,19.40
2022-10-21T03:50:36.792Z,19.40
2022-10-21T03:53:13.702Z,19.40
2022-10-21T03:55:34.456Z,19.40
2022-10-21T03:58:02.126Z,19.40
2022-10-21T04:00:33.260Z,19.40
2022-10-21T04:03:02.168Z,19.40
2022-10-21T04:05:29.730Z,19.30
2022-10-21T04:07:57.269Z,19.30
2022-10-21T04:10:25.444Z,19.30
2022-10-21T04:12:53.621Z,19.30
2022-10-21T04:15:21.305Z,19.30
2022-10-21T04:17:51.244Z,19.30
2022-10-21T04:20:21.826Z,19.30
2022-10-21T04:22:49.812Z,19.30
2022-10-21T04:25:17.462Z,19.30
2022-10-21T04:27:45.429Z,19.30
2022-10-21T04:30:13.710Z,19.30
2022-10-21T04:32:43.232Z,19.30
2022-10-21T04:35:10.954Z,19.30
2022-10-21T04:37:41.371Z,19.30
2022-10-21T04:40:13.101Z,19.30
2022-10-21T04:42:43.202Z,19.30
2022-10-21T04:45:12.027Z,19.30
2022-10-21T04:47:39.889Z,19.30
2022-10-21T04:50:08.107Z,19.30
2022-10-21T04:52:36.071Z,19.30
2022-10-21T04:55:05.677Z,19.30
2022-10-21T04:57:33.662Z,19.30
2022-10-21T05:00:02.463Z,19.30
2022-10-21T05:02:30.998Z,19.30
2022-10-21T05:05:00.133Z,19.30
2022-10-21T05:07:27.785Z,19.30
2022-10-21T05:09:56.162Z,19.30
2022-10-21T05:12:24.853Z,19.30
2022-10-21T05:14:52.717Z,19.30
2022-10-21T05:17:21.367Z,19.30
2022-10-21T05:19:49.958Z,19.30
2022-10-21T05:22:20.508Z,19.30
2022-10-21T05:24:48.481Z,19.30
2022-10-21T05:27:16.270Z,19.30
2022-10-21T05:29:44.056Z,19.30
2022-10-21T05:32:11.778Z,19.30
2022-10-21T05:37:21.426Z,19.30
2022-10-21T05:39:50.198Z,19.30
2022-10-21T05:42:19.445Z,19.30
2022-10-21T05:44:47.578Z,19.30
2022-10-21T05:47:17.973Z,19.30
2022-10-21T05:49:46.796Z,19.30
2022-10-21T05:52:14.473Z,19.30
2022-10-21T05:54:42.260Z,19.30
2022-10-21T05:57:10.044Z,19.30
2022-10-21T05:59:39.076Z,19.30
2022-10-21T06:02:07.375Z,19.30
2022-10-21T06:04:37.983Z,19.30
2022-10-21T06:07:04.381Z,19.30
2022-10-21T06:09:32.233Z,19.30
2022-10-21T06:12:03.296Z,19.30
2022-10-21T06:17:29.783Z,19.30
2022-10-21T06:19:59.716Z,19.30
2022-10-21T06:22:55.745Z,19.40
2022-10-21T06:25:30.580Z,19.40
2022-10-21T06:28:50.211Z,19.40
2022-10-21T06:31:04.416Z,19.30
2022-10-21T06:33:32.548Z,19.40
2022-10-21T06:36:01.233Z,19.40
2022-10-21T06:38:29.543Z,19.40
2022-10-21T06:41:09.226Z,19.40
2022-10-21T06:46:25.694Z,19.50
2022-10-21T06:48:53.486Z,19.50
2022-10-21T06:51:22.995Z,19.50
2022-10-21T06:53:56.635Z,19.50
2022-10-21T06:56:25.971Z,19.60
2022-10-21T06:58:56.630Z,19.60
2022-10-21T07:01:40.978Z,19.60
2022-10-21T07:03:59.913Z,19.70
2022-10-21T07:06:27.610Z,19.70
2022-10-21T07:08:58.853Z,19.70
2022-10-21T07:11:27.914Z,19.70
2022-10-21T07:13:56.513Z,19.70
2022-10-21T07:16:27.639Z,19.70
2022-10-21T07:18:56.065Z,19.70
2022-10-21T07:21:27.153Z,19.70
2022-10-21T07:23:59.820Z,19.80
2022-10-21T07:26:30.508Z,19.80
2022-10-21T07:28:59.846Z,19.80
2022-10-21T07:31:30.581Z,19.80
2022-10-21T07:34:00.235Z,19.90
2022-10-21T07:36:30.033Z,19.90
2022-10-21T07:39:01.345Z,19.90
2022-10-21T07:41:32.869Z,19.90
2022-10-21T07:44:01.433Z,19.90
2022-10-21T07:46:29.179Z,19.90
2022-10-21T07:48:57.358Z,20.00
2022-10-21T07:51:31.028Z,20.00
2022-10-21T07:54:00.473Z,20.00
2022-10-21T07:56:31.915Z,19.90
2022-10-21T07:59:02.624Z,20.00
2022-10-21T08:01:30.583Z,20.00
2022-10-21T08:03:59.910Z,20.00
2022-10-21T08:06:29.080Z,20.10
2022-10-21T08:08:59.962Z,20.10
2022-10-21T08:11:31.296Z,20.10
2022-10-21T08:13:59.757Z,20.20
2022-10-21T08:16:34.780Z,20.20
2022-10-21T08:19:03.504Z,20.20
2022-10-21T08:21:31.464Z,20.20
2022-10-21T08:24:01.626Z,20.30
2022-10-21T08:26:29.783Z,20.30
2022-10-21T08:31:25.596Z,20.30
2022-10-21T08:33:53.381Z,20.40
2022-10-21T08:36:23.793Z,20.30
2022-10-21T08:38:52.477Z,20.40
2022-10-21T08:41:52.975Z,20.40
2022-10-21T08:44:55.186Z,20.40
2022-10-21T08:47:35.404Z,20.50
2022-10-21T08:50:15.958Z,20.50
2022-10-21T08:53:05.158Z,20.60
2022-10-21T08:55:37.005Z,20.50
2022-10-21T08:58:05.660Z,20.60
2022-10-21T09:00:39.889Z,20.60
2022-10-21T09:03:23.111Z,20.70
2022-10-21T09:06:14.237Z,20.70
2022-10-21T09:09:15.887Z,20.70
2022-10-21T09:11:53.205Z,20.70
2022-10-21T09:14:56.278Z,20.70
2022-10-21T09:17:58.883Z,20.80
2022-10-21T09:20:31.632Z,20.80
2022-10-21T09:23:22.544Z,20.80
2022-10-21T09:26:05.783Z,20.80
2022-10-21T09:28:37.098Z,20.80
2022-10-21T09:31:15.439Z,20.80
2022-10-21T09:33:51.197Z,20.90
2022-10-21T09:36:24.764Z,20.90
2022-10-21T09:39:04.912Z,20.90
2022-10-21T09:41:42.048Z,20.90
2022-10-21T09:44:19.000Z,20.90
2022-10-21T09:46:49.027Z,20.90
2022-10-21T09:52:04.876Z,20.90
2022-10-21T09:54:39.550Z,20.90
2022-10-21T09:57:17.171Z,20.90
2022-10-21T10:00:04.034Z,20.90
2022-10-21T10:02:49.257Z,20.90
2022-10-21T10:05:45.109Z,20.90
2022-10-21T10:08:34.271Z,20.90
2022-10-21T10:11:10.392Z,20.90
2022-10-21T10:13:50.679Z,20.90
2022-10-21T10:16:25.210Z,20.90
2022-10-21T10:18:55.701Z,20.90
2022-10-21T10:21:24.757Z,21.00
2022-10-21T10:23:55.292Z,20.90
2022-10-21T10:26:36.654Z,20.90
2022-10-21T10:29:17.084Z,20.90
2022-10-21T10:31:51.239Z,20.90
2022-10-21T10:34:22.383Z,20.90
2022-10-21T10:36:51.228Z,20.90
2022-10-21T10:39:32.552Z,20.90
2022-10-21T10:42:01.399Z,20.90
2022-10-21T10:44:33.017Z,21.00
2022-10-21T10:47:03.453Z,21.00
2022-10-21T10:49:40.063Z,21.00
2022-10-21T10:52:14.626Z,21.00
2022-10-21T10:54:50.535Z,21.00
2022-10-21T10:57:39.036Z,21.00
2022-10-21T11:00:17.099Z,21.00
2022-10-21T11:02:48.753Z,21.00
2022-10-21T11:05:29.484Z,21.00
2022-10-21T11:08:04.561Z,21.00
2022-10-21T11:10:35.900Z,21.00
2022-10-21T11:13:19.641Z,21.00
2022-10-21T11:15:57.028Z,21.00
2022-10-21T11:18:37.612Z,21.00
2022-10-21T11:21:18.153Z,21.00
2022-10-21T11:24:01.292Z,21.00
2022-10-21T11:26:44.423Z,21.00
2022-10-21T11:29:30.809Z,21.10
2022-10-21T11:32:14.336Z,21.10
2022-10-21T11:35:01.356Z,21.10
2022-10-21T11:37:33.007Z,21.10
2022-10-21T11:40:16.633Z,21.10
2022-10-21T11:42:47.590Z,21.10
2022-10-21T11:45:44.617Z,21.10
2022-10-21T11:48:18.953Z,21.20
2022-10-21T11:51:05.168Z,21.20
2022-10-21T11:54:13.525Z,21.20
2022-10-21T11:56:54.233Z,21.20
2022-10-21T12:00:00.816Z,21.10
2022-10-21T12:02:43.193Z,21.10
2022-10-21T12:05:38.733Z,21.10
2022-10-21T12:08:12.258Z,21.10
2022-10-21T12:10:44.191Z,21.10
2022-10-21T12:13:24.889Z,21.00
2022-10-21T12:16:01.272Z,21.00
2022-10-21T12:18:30.808Z,21.00
2022-10-21T12:20:59.417Z,21.00
2022-10-21T12:23:30.235Z,21.00
2022-10-21T12:26:21.445Z,21.00
2022-10-21T12:29:04.565Z,21.00
2022-10-21T12:31:54.890Z,21.10
2022-10-21T12:34:24.720Z,21.00
2022-10-21T12:36:55.399Z,21.00
2022-10-21T12:39:48.595Z,21.00
2022-10-21T12:42:21.694Z,21.00
2022-10-21T12:44:51.631Z,21.00
2022-10-21T12:47:26.384Z,21.00
2022-10-21T12:50:08.821Z,21.00
2022-10-21T12:52:38.181Z,21.00
2022-10-21T12:55:09.910Z,21.00
2022-10-21T12:57:41.016Z,21.00
2022-10-21T13:00:29.853Z,21.00
2022-10-21T13:03:07.504Z,21.00
2022-10-21T13:05:42.056Z,21.00
2022-10-21T13:08:23.147Z,21.00
2022-10-21T13:11:07.330Z,21.00
2022-10-21T13:13:44.469Z,21.00
2022-10-21T13:16:25.016Z,21.10
2022-10-21T13:19:05.531Z,21.10
2022-10-21T13:21:42.758Z,21.10
2022-10-21T13:24:26.132Z,21.10
2022-10-21T13:27:03.262Z,21.00
2022-10-21T13:29:47.912Z,21.10
2022-10-21T13:32:19.490Z,21.10
2022-10-21T13:35:20.363Z,21.00
2022-10-21T13:37:57.561Z,21.00
2022-10-21T13:40:31.799Z,21.00
2022-10-21T13:43:03.206Z,21.00
2022-10-21T13:45:37.488Z,20.90
2022-10-21T13:48:08.428Z,21.00
2022-10-21T13:50:41.792Z,21.00
2022-10-21T13:53:25.153Z,21.00
2022-10-21T13:58:58.876Z,20.90
2022-10-21T14:01:31.164Z,20.90
2022-10-21T14:04:17.837Z,20.90
2022-10-21T14:06:58.420Z,20.80
2022-10-21T14:09:30.050Z,20.80
2022-10-21T14:12:01.919Z,20.80
2022-10-21T14:14:30.875Z,20.80
2022-10-21T14:17:03.399Z,20.80
2022-10-21T14:19:38.306Z,20.80
2022-10-21T14:24:44.788Z,20.80
2022-10-21T14:27:19.444Z,20.80
2022-10-21T14:29:47.946Z,20.80
2022-10-21T14:32:18.213Z,20.80
2022-10-21T14:35:10.508Z,20.80
2022-10-21T14:37:53.404Z,20.80
2022-10-21T14:40:26.860Z,20.80
2022-10-21T14:42:55.774Z,20.90
2022-10-21T14:45:33.299Z,20.90
2022-10-21T14:48:10.882Z,20.80
2022-10-21T14:50:40.670Z,20.70
2022-10-21T14:53:20.508Z,20.70
2022-10-21T14:55:51.363Z,20.70
2022-10-21T14:58:31.239Z,20.60
2022-10-21T15:01:09.030Z,20.70
2022-10-21T15:03:46.692Z,20.60
2022-10-21T15:06:21.354Z,20.60
2022-10-21T15:09:01.786Z,20.70
2022-10-21T15:11:36.147Z,20.70
2022-10-21T15:14:16.421Z,20.70
2022-10-21T15:16:53.779Z,20.70
2022-10-21T15:19:33.464Z,20.70
2022-10-21T15:22:03.438Z,20.70
2022-10-21T15:24:38.179Z,20.80
2022-10-21T15:27:05.836Z,20.80
2022-10-21T15:29:37.162Z,20.80
2022-10-21T15:32:07.609Z,20.80
2022-10-21T15:34:38.706Z,20.80
2022-10-21T15:37:07.697Z,20.80
2022-10-21T15:39:35.212Z,20.80
2022-10-21T15:42:02.965Z,20.80
2022-10-21T15:44:35.652Z,20.80
2022-10-21T15:47:11.582Z,20.80
2022-10-21T15:49:43.846Z,20.80
2022-10-21T15:52:14.103Z,20.80
2022-10-21T15:54:43.124Z,20.80
2022-10-21T15:57:20.375Z,20.80
2022-10-21T15:59:48.853Z,20.80
2022-10-21T16:02:17.718Z,20.80
2022-10-21T16:04:46.024Z,20.80
2022-10-21T16:07:30.650Z,20.80
2022-10-21T16:09:59.325Z,20.70
2022-10-21T16:12:26.998Z,20.80
2022-10-21T16:14:56.541Z,20.80
2022-10-21T16:17:26.938Z,20.70
2022-10-21T16:19:55.331Z,20.70
2022-10-21T16:22:23.308Z,20.70
2022-10-21T16:24:51.065Z,20.70
2022-10-21T16:27:26.554Z,20.70
2022-10-21T16:29:50.399Z,20.70
2022-10-21T16:32:18.568Z,20.70
2022-10-21T16:34:47.040Z,20.70
2022-10-21T16:37:26.686Z,20.70
2022-10-21T16:39:54.727Z,20.60
2022-10-21T16:42:22.038Z,20.60
2022-10-21T16:45:10.277Z,20.60
2022-10-21T16:47:38.526Z,20.60
2022-10-21T16:50:07.545Z,20.60
2022-10-21T16:52:36.921Z,20.60
2022-10-21T16:55:06.745Z,20.60
2022-10-21T16:57:34.500Z,20.60
2022-10-21T17:00:02.281Z,20.60
2022-10-21T17:02:30.065Z,20.60
2022-10-21T17:04:58.188Z,20.60
2022-10-21T17:07:25.989Z,20.60
2022-10-21T17:09:53.329Z,20.60
2022-10-21T17:12:21.423Z,20.60
2022-10-21T17:14:49.881Z,20.50
2022-10-21T17:17:24.195Z,20.60
2022-10-21T17:19:52.884Z,20.50
2022-10-21T17:22:21.071Z,20.50
2022-10-21T17:24:50.337Z,20.50
2022-10-21T17:27:19.785Z,20.60
2022-10-21T17:29:47.721Z,20.50
2022-10-21T17:32:15.593Z,20.60
2022-10-21T17:34:43.539Z,20.60
2022-10-21T17:37:12.246Z,20.60
2022-10-21T17:39:41.146Z,20.60
2022-10-21T17:42:10.129Z,20.50
2022-10-21T17:44:37.924Z,20.50
2022-10-21T17:47:05.557Z,20.50
2022-10-21T17:49:33.933Z,20.50
2022-10-21T17:52:01.850Z,20.50
2022-10-21T17:54:32.649Z,20.50
2022-10-21T17:57:00.829Z,20.50
2022-10-21T17:59:28.707Z,20.50
2022-10-21T18:01:57.054Z,20.50
2022-10-21T18:04:25.415Z,20.50
2022-10-21T18:06:53.030Z,20.50
2022-10-21T18:09:21.238Z,20.50
2022-10-21T18:11:52.417Z,20.50
2022-10-21T18:14:20.456Z,20.50
2022-10-21T18:16:48.085Z,20.50
2022-10-21T18:19:17.213Z,20.50
2022-10-21T18:21:45.331Z,20.50
2022-10-21T18:24:13.295Z,20.50
2022-10-21T18:26:40.886Z,20.50
2022-10-21T18:29:08.761Z,20.50
2022-10-21T18:31:38.110Z,20.50
2022-10-21T18:34:09.350Z,20.50
2022-10-21T18:36:44.433Z,20.50
2022-10-21T18:39:14.412Z,20.50
2022-10-21T18:41:48.819Z,20.50
2022-10-21T18:44:16.706Z,20.50
2022-10-21T18:46:46.617Z,20.40
2022-10-21T18:49:35.912Z,20.50
2022-10-21T18:52:05.233Z,20.50
2022-10-21T18:54:33.479Z,20.40
2022-10-21T18:57:01.638Z,20.50
2022-10-21T18:59:29.725Z,20.50
2022-10-21T19:01:57.812Z,20.50
2022-10-21T19:04:25.782Z,20.50
2022-10-21T19:06:53.927Z,20.50
2022-10-21T19:09:23.609Z,20.50
2022-10-21T19:11:51.192Z,20.50
2022-10-21T19:14:21.731Z,20.50
2022-10-21T19:17:02.507Z,20.40
2022-10-21T19:19:34.801Z,20.40
2022-10-21T19:22:01.638Z,20.40
2022-10-21T19:24:30.846Z,20.40
2022-10-21T19:26:59.583Z,20.40
2022-10-21T19:29:31.102Z,20.40
2022-10-21T19:31:59.621Z,20.40
2022-10-21T19:34:27.676Z,20.40
2022-10-21T19:36:55.456Z,20.40
2022-10-21T19:39:23.628Z,20.50
2022-10-21T19:41:51.153Z,20.40
2022-10-21T19:44:18.967Z,20.40
2022-10-21T19:46:46.781Z,20.40
2022-10-21T19:49:15.553Z,20.40
2022-10-21T19:51:45.009Z,20.40
2022-10-21T19:54:14.138Z,20.40
2022-10-21T19:56:42.881Z,20.40
2022-10-21T19:59:11.267Z,20.40
2022-10-21T20:01:39.349Z,20.40
2022-10-21T20:04:13.333Z,20.40
2022-10-21T20:06:41.325Z,20.40
2022-10-21T20:09:11.695Z,20.40
2022-10-21T20:11:48.066Z,20.40
2022-10-21T20:14:23.877Z,20.40
2022-10-21T20:16:54.601Z,20.40
2022-10-21T20:19:22.573Z,20.40
2022-10-21T20:21:50.863Z,20.50
2022-10-21T20:24:19.879Z,20.50
2022-10-21T20:26:49.360Z,20.50
2022-10-21T20:29:19.246Z,20.50
2022-10-21T20:31:48.229Z,20.50
2022-10-21T20:34:17.087Z,20.50
2022-10-21T20:36:45.626Z,20.50
2022-10-21T20:39:13.894Z,20.50
2022-10-21T20:41:42.216Z,20.50
2022-10-21T20:44:13.921Z,20.50
2022-10-21T20:46:53.641Z,20.50
2022-10-21T20:49:41.366Z,20.50
2022-10-21T20:52:09.876Z,20.50
2022-10-21T20:54:42.823Z,20.50
2022-10-21T20:57:32.296Z,20.50
2022-10-21T21:00:08.918Z,20.50
2022-10-21T21:02:37.814Z,20.50
2022-10-21T21:05:08.859Z,20.50
2022-10-21T21:07:38.840Z,20.50
2022-10-21T21:10:07.953Z,20.50
2022-10-21T21:12:35.732Z,20.50
2022-10-21T21:15:05.624Z,20.50
2022-10-21T21:17:33.410Z,20.50
2022-10-21T21:20:01.994Z,20.50
2022-10-21T21:22:30.337Z,20.50
2022-10-21T21:25:00.775Z,20.50
2022-10-21T21:27:29.690Z,20.50
2022-10-21T21:29:57.948Z,20.50
2022-10-21T21:32:25.715Z,20.50
2022-10-21T21:34:57.160Z,20.50
2022-10-21T21:37:26.293Z,20.50
2022-10-21T21:39:54.165Z,20.50
2022-10-21T21:42:42.177Z,20.50
2022-10-21T21:45:10.727Z,20.60
2022-10-21T21:47:38.675Z,20.50
2022-10-21T21:50:08.484Z,20.50
2022-10-21T21:52:36.326Z,20.50
2022-10-21T21:55:04.092Z,20.50
2022-10-21T21:57:31.520Z,20.50
2022-10-21T21:59:58.890Z,20.50
2022-10-21T22:02:39.801Z,20.50
2022-10-21T22:05:08.635Z,20.50
2022-10-21T22:07:36.679Z,20.50
2022-10-21T22:10:05.904Z,20.60
2022-10-21T22:12:34.382Z,20.50
2022-10-21T22:15:02.375Z,20.50
2022-10-21T22:17:31.145Z,20.50
2022-10-21T22:19:58.832Z,20.50
2022-10-21T22:22:26.287Z,20.50
2022-10-21T22:25:14.780Z,20.50
2022-10-21T22:28:05.190Z,20.50
2022-10-21T22:30:33.197Z,20.50
2022-10-21T22:33:02.169Z,20.50
2022-10-21T22:35:30.339Z,20.50
2022-10-21T22:38:01.584Z,20.50
2022-10-21T22:40:29.499Z,20.50
2022-10-21T22:42:57.768Z,20.50
2022-10-21T22:45:25.517Z,20.50
2022-10-21T22:47:53.410Z,20.50
2022-10-21T22:50:20.864Z,20.50
2022-10-21T22:52:48.421Z,20.50
2022-10-21T22:55:16.084Z,20.50
2022-10-21T22:57:43.947Z,20.50
2022-10-21T23:00:12.281Z,20.50
2022-10-21T23:02:40.678Z,20.50
2022-10-21T23:05:09.526Z,20.50
2022-10-21T23:07:37.576Z,20.50
2022-10-21T23:12:34.925Z,20.50
2022-10-21T23:15:02.892Z,20.50
2022-10-21T23:17:31.263Z,20.50
2022-10-21T23:19:59.442Z,20.50
2022-10-21T23:22:27.113Z,20.50
2022-10-21T23:24:54.706Z,20.50
2022-10-21T23:27:22.652Z,20.50
2022-10-21T23:29:50.089Z,20.50
2022-10-21T23:32:17.776Z,20.50
2022-10-21T23:34:45.646Z,20.50
2022-10-21T23:37:14.161Z,20.50
2022-10-21T23:39:42.966Z,20.50
2022-10-21T23:42:10.651Z,20.50
2022-10-21T23:44:38.618Z,20.50
2022-10-21T23:47:09.533Z,20.50
2022-10-21T23:49:37.372Z,20.50
2022-10-21T23:52:06.412Z,20.50
2022-10-21T23:54:53.895Z,20.40
2022-10-21T23:57:21.653Z,20.40
2022-10-21T23:59:49.373Z,20.40
